createdAt,value
2023-03-31T06:20:28.142Z,7.17
2023-03-31T06:30:26.222Z,8.79
2023-03-31T06:40:26.220Z,9.59
2023-03-31T06:50:26.271Z,7.93
2023-03-31T07:00:26.165Z,7.93
2023-03-31T07:10:26.268Z,7.83
2023-03-31T07:20:26.298Z,8.81
2023-03-31T07:30:26.352Z,8.37
2023-03-31T07:40:26.150Z,10.59
2023-03-31T07:50:26.364Z,7.86
2023-03-31T08:00:26.223Z,7.93
2023-03-31T08:10:26.394Z,7.63
2023-03-31T08:20:26.353Z,9.35
2023-03-31T08:30:26.234Z,9.04
2023-03-31T08:40:26.502Z,9.77
2023-03-31T08:50:26.363Z,8.91
2023-03-31T09:00:26.328Z,8.67
2023-03-31T09:10:26.280Z,9.00
2023-03-31T09:20:26.353Z,8.78
2023-03-31T09:30:26.284Z,10.02
2023-03-31T09:40:26.484Z,12.39
2023-03-31T09:50:26.679Z,14.10
2023-03-31T10:00:26.415Z,12.33
2023-03-31T10:10:26.375Z,13.82
2023-03-31T10:20:26.746Z,14.27
2023-03-31T10:30:26.496Z,13.76
2023-03-31T10:40:26.372Z,13.93
2023-03-31T10:50:26.457Z,13.98
2023-03-31T11:00:26.593Z,14.78
2023-03-31T11:10:26.561Z,17.42
2023-03-31T11:20:27.267Z,16.96
2023-03-31T11:30:26.515Z,19.31
2023-03-31T11:40:26.561Z,17.22
2023-03-31T11:50:26.544Z,13.06
2023-03-31T12:00:26.480Z,12.52
2023-03-31T12:10:26.537Z,13.16
2023-03-31T12:20:26.496Z,14.44
2023-03-31T12:30:26.566Z,14.87
2023-03-31T12:40:26.632Z,13.35
2023-03-31T12:50:26.497Z,12.14
2023-03-31T13:00:26.529Z,10.52
2023-03-31T13:10:26.643Z,13.00
2023-03-31T13:20:26.701Z,11.28
2023-03-31T13:30:26.756Z,9.90
2023-03-31T13:40:26.728Z,8.40
2023-03-31T13:50:26.580Z,8.96
2023-03-31T14:00:26.745Z,8.50
2023-03-31T14:10:26.615Z,2.56
2023-03-31T14:20:26.878Z,0.00
2023-03-31T14:30:26.538Z,8.51
2023-03-31T14:40:26.726Z,11.69
2023-03-31T14:50:26.681Z,10.88
2023-03-31T15:00:28.014Z,7.37
2023-03-31T15:10:26.704Z,5.97
2023-03-31T15:20:26.782Z,8.09
2023-03-31T15:30:26.853Z,8.82
2023-03-31T15:40:26.898Z,7.00
2023-03-31T15:50:26.674Z,8.77
2023-03-31T16:00:26.616Z,5.78
2023-03-31T16:10:26.693Z,6.58
2023-03-31T16:20:26.647Z,3.75
2023-03-31T16:30:26.922Z,6.72
2023-03-31T16:40:26.892Z,7.96
2023-03-31T16:50:26.743Z,6.84
2023-03-31T17:00:26.950Z,5.93
2023-03-31T17:10:26.776Z,5.03
2023-03-31T17:20:26.958Z,4.68
2023-03-31T17:30:26.797Z,5.60
2023-03-31T17:40:28.081Z,5.08
2023-03-31T17:50:27.038Z,5.07
2023-03-31T18:00:26.898Z,5.31
2023-03-31T18:10:26.995Z,5.14
2023-03-31T18:20:27.044Z,6.00
2023-03-31T18:30:27.192Z,7.83
2023-03-31T18:40:26.947Z,6.12
2023-03-31T18:50:27.125Z,4.80
2023-03-31T19:00:26.875Z,6.11
2023-03-31T19:10:27.156Z,4.74
2023-03-31T19:20:27.119Z,7.97
